Accueil
METAR-TAF:

METAR-TAF

Aéroports :

Aéroport international de Curaçao

Curaçao, Antilles néerlandaises

latitude: 12-12N, longitude: 068-58W, altitude: 9 m

Observation

Le bulletin a été fait il y a 56 minutes, à 22:00 UTC
Vent 11 kt de est
Température 28°C
Humidité 79%
Pression 1009 hPa
Visibilité 10 km ou plus

METAR: TNCC 162200Z 08011KT 9999 NSC 28/24 Q1009 NOSIG

Heure: 18:56 (22:56 UTC)

Prévision

Le bulletin a été fait il y a 6 heures et 56 minutes, à 16:00 UTC
Prévision valable du 16 à 18 UTC au 17 à 18 UTC
Vent 11 kt de est
Visibilité 10 km ou plus
Nuages épars à une hauteur de 2000 ft
Temporairement
du 17 à 04 UTC au 17 à 16 UTC
Visibilité: 7000 m
Nuages fragmentés à une hauteur de 1500 ft
averses de pluie

TAF: TNCC 161600Z 1618/1718 10011KT 9999 SCT020 TEMPO 1704/1716 7000 SHRA BKN015

Observations et prévisions météorologiques de plus de 4000 aéroports (messages METAR et TAF).

Les stations disponibles sont représentées par des disques jaunes et rouges sur la carte.

Passer la souris dessus pour voir le nom de la station.

Cliquer dessus pour voir les observations et prévisions météorologiques.

Pour changer de carte: cliquez sur les boutons verts avec une croix noire pour zoomer, sur le bouton vert avec un tiret pour effectuer un zoom arrière, ou sur les flèches vertes pour les cartes adjacentes.


METAR-TAF: